Weather at El Paraiso Airport

Public forecast

Using degrees Celsius for public forecast. Weather courtesy of forecast.io.

Closest aviation weather report (METAR) to El Paraiso Airport

Report is more than 2 hours old.

Closest report is Barinas Airport, 19.4 nm (36.0 km) NNE.

2023/03/26 00:03 (retrieved 2 hours ago)

SVBI 260003Z AUTO /////KT NCD 31/15 Q1012

Closest aviation forecast (TAF) to El Paraiso Airport

Forecast is more than 12 hours old.

Closest forecast is Arturo Michelena International Airport, 181.4 nm (336.0 km) NE.

2023/03/25 12:12 (retrieved 14 hours ago)

TAF SVVA 251000Z 2512/2612 19005KT 9999 SCT016 SCT080 TX33/2519 TN23/2609 BECMG 2522/2602 07005KT BKN020 FM 260230 13005KT 9999 SCT020 BKN080